Time;durP1;ratioP1;P1;durP2;ratioP2;P2;SDS_P1;SDS_P2;PMS_P1;PMS_P2;Temp;Humidity;BMP_temperature;BMP_pressure;BME280_temperature;BME280_humidity;BME280_pressure;Samples;Min_cycle;Max_cycle;Signal;HPM_P1;HPM_P2
2022/10/11 00:00:47;;;;;;;18.08;2.25;;;12.70;99.90;;;;;;5050993;28;20323;-72
2022/10/11 00:03:15;;;;;;;12.00;2.42;;;12.70;99.90;;;;;;5049767;28;20045;-74
2022/10/11 00:05:42;;;;;;;16.33;2.42;;;12.60;99.90;;;;;;5050745;28;20477;-74
2022/10/11 00:08:12;;;;;;;21.85;2.50;;;12.60;99.90;;;;;;5051162;28;20099;-72
2022/10/11 00:10:38;;;;;;;18.08;3.60;;;12.50;99.90;;;;;;5050572;28;20044;-73
2022/10/11 00:13:05;;;;;;;13.30;1.95;;;12.50;99.90;;;;;;5050681;28;20033;-73
2022/10/11 00:15:31;;;;;;;10.75;2.92;;;12.60;99.90;;;;;;5051081;28;20033;-73
2022/10/11 00:17:56;;;;;;;14.05;2.08;;;12.60;99.90;;;;;;5050682;28;20512;-72
2022/10/11 00:20:23;;;;;;;14.57;2.45;;;12.70;99.90;;;;;;5050542;28;20028;-72
2022/10/11 00:22:48;;;;;;;17.90;2.00;;;12.60;99.90;;;;;;5051024;28;20021;-72
2022/10/11 00:25:15;;;;;;;12.20;2.28;;;12.60;99.90;;;;;;5050679;28;20580;-74
2022/10/11 00:27:41;;;;;;;7.85;1.40;;;12.70;99.90;;;;;;5050433;28;20516;-74
2022/10/11 00:30:08;;;;;;;14.02;2.33;;;12.70;99.90;;;;;;5049332;28;20140;-74
2022/10/11 00:32:35;;;;;;;12.25;2.15;;;12.70;99.90;;;;;;5050619;28;20104;-71
2022/10/11 00:35:05;;;;;;;15.10;2.05;;;12.70;99.90;;;;;;5050791;28;20079;-74
2022/10/11 00:37:31;;;;;;;14.43;2.63;;;12.50;99.90;;;;;;5049814;28;20039;-74
2022/10/11 00:39:57;;;;;;;17.73;2.47;;;12.30;99.90;;;;;;5050444;28;20055;-73
2022/10/11 00:42:23;;;;;;;21.73;2.53;;;12.30;99.90;;;;;;5050258;28;20025;-73
2022/10/11 00:44:49;;;;;;;16.38;2.33;;;12.40;99.90;;;;;;5049511;28;20041;-73
2022/10/11 00:47:22;;;;;;;12.65;2.10;;;12.50;99.90;;;;;;5049657;28;20021;-73
2022/10/11 00:49:54;;;;;;;9.90;2.20;;;12.40;99.90;;;;;;5050432;28;20041;-73
2022/10/11 00:52:33;;;;;;;12.05;2.47;;;12.40;99.90;;;;;;5050358;28;20029;-72
2022/10/11 00:55:11;;;;;;;13.88;2.45;;;12.40;99.90;;;;;;5049182;28;20044;-73
2022/10/11 00:57:38;;;;;;;;;;;12.50;99.90;;;;;;5051006;28;20021;-72
2022/10/11 01:00:10;;;;;;;17.27;2.67;;;12.50;99.90;;;;;;5066522;28;20251;-74
2022/10/11 01:02:36;;;;;;;13.68;2.22;;;12.50;99.90;;;;;;5050284;28;20021;-73
2022/10/11 01:05:04;;;;;;;16.30;2.42;;;12.50;99.90;;;;;;5050570;28;20013;-74
2022/10/11 01:07:31;;;;;;;15.70;1.80;;;12.50;99.90;;;;;;5050572;28;20067;-72
2022/10/11 01:09:57;;;;;;;11.27;2.17;;;12.50;99.80;;;;;;5050321;28;20060;-73
2022/10/11 01:12:25;;;;;;;16.48;2.35;;;12.30;99.90;;;;;;5049925;28;20502;-73
2022/10/11 01:15:14;;;;;;;;;;;12.20;99.90;;;;;;5050503;28;20060;-73
2022/10/11 01:17:42;;;;;;;17.15;1.90;;;12.30;99.90;;;;;;5050222;28;19963;-73
2022/10/11 01:20:17;;;;;;;16.75;2.28;;;12.30;99.90;;;;;;5050470;28;20017;-72
2022/10/11 01:23:17;;;;;;;17.15;2.15;;;12.20;99.90;;;;;;5050018;28;20026;-72
2022/10/11 01:26:16;;;;;;;12.40;2.38;;;12.10;99.90;;;;;;5050262;28;20037;-71
2022/10/11 01:28:50;;;;;;;20.63;1.85;;;11.90;99.90;;;;;;5050138;28;20029;-73
2022/10/11 01:31:40;;;;;;;18.90;2.25;;;11.90;99.90;;;;;;5050154;28;20037;-72
2022/10/11 01:34:39;;;;;;;16.17;2.25;;;12.10;99.90;;;;;;5049869;28;20489;-72
2022/10/11 01:37:47;;;;;;;15.15;2.63;;;12.10;99.90;;;;;;5068425;28;20029;-72
2022/10/11 01:40:59;;;;;;;20.17;2.20;;;12.10;99.90;;;;;;5065830;28;20025;-72
2022/10/11 01:43:26;;;;;;;17.25;2.33;;;12.00;99.90;;;;;;5069455;28;20099;-70
2022/10/11 01:45:53;;;;;;;10.85;1.95;;;12.00;99.90;;;;;;5069697;28;20032;-72
2022/10/11 01:48:19;;;;;;;19.60;2.60;;;11.80;99.90;;;;;;5070434;28;20033;-72
2022/10/11 01:54:21;;;;;;;11.45;1.75;;;11.90;99.90;;;;;;5072926;28;20078;-72
2022/10/11 01:57:14;;;;;;;15.90;2.35;;;11.90;99.90;;;;;;5073189;28;20029;-73
2022/10/11 02:00:04;;;;;;;20.95;3.03;;;11.90;99.90;;;;;;5072198;28;20471;-72
2022/10/11 02:02:51;;;;;;;13.80;1.73;;;11.90;99.90;;;;;;5073212;28;20458;-73
2022/10/11 02:05:30;;;;;;;;;;;11.90;99.90;;;;;;5074027;28;20028;-72
2022/10/11 02:07:55;;;;;;;14.38;1.90;;;11.80;99.90;;;;;;5072295;28;19908;-74
2022/10/11 02:10:39;;;;;;;23.88;2.92;;;11.90;99.90;;;;;;5073140;28;20478;-73
2022/10/11 02:13:11;;;;;;;21.60;2.17;;;11.80;99.90;;;;;;5071838;28;20055;-72
2022/10/11 02:15:40;;;;;;;13.73;2.00;;;11.90;99.90;;;;;;5071499;28;20032;-74
2022/10/11 02:18:15;;;;;;;16.30;2.42;;;11.80;99.90;;;;;;5072543;28;20474;-73
2022/10/11 02:20:44;;;;;;;17.23;2.35;;;11.90;99.90;;;;;;5071026;28;22464;-75
2022/10/11 02:23:41;;;;;;;17.88;3.33;;;12.00;99.90;;;;;;5072424;28;20028;-72
2022/10/11 02:26:10;;;;;;;11.77;2.30;;;11.90;99.90;;;;;;5069520;28;20055;-73
2022/10/11 02:28:38;;;;;;;15.85;2.42;;;12.00;99.90;;;;;;5072800;28;20268;-73
2022/10/11 02:31:05;;;;;;;;;;;11.90;99.90;;;;;;5073299;28;20039;-72
2022/10/11 02:33:46;;;;;;;16.55;2.10;;;12.00;99.90;;;;;;5072447;28;19912;-72
2022/10/11 02:36:18;;;;;;;18.05;2.03;;;12.00;99.90;;;;;;5071400;28;20033;-73
2022/10/11 02:38:48;;;;;;;15.40;1.83;;;11.90;99.90;;;;;;5072677;28;20056;-73
2022/10/11 02:41:21;;;;;;;11.05;2.22;;;11.70;99.90;;;;;;5072766;28;20348;-73
2022/10/11 02:44:02;;;;;;;22.08;2.78;;;11.80;99.90;;;;;;5071529;28;20418;-72
2022/10/11 02:46:29;;;;;;;16.05;2.40;;;11.80;99.90;;;;;;5072183;28;20032;-72
2022/10/11 02:48:58;;;;;;;17.70;1.92;;;12.00;99.90;;;;;;5072127;28;20055;-73
2022/10/11 02:51:26;;;;;;;13.13;1.90;;;12.10;99.90;;;;;;5072273;28;20109;-72
2022/10/11 02:53:52;;;;;;;19.02;3.22;;;12.00;99.90;;;;;;5071900;28;20029;-73
2022/10/11 02:56:18;;;;;;;20.08;2.58;;;12.00;99.90;;;;;;5071597;28;20032;-73
2022/10/11 02:58:44;;;;;;;14.30;2.72;;;12.10;99.90;;;;;;5071882;28;20039;-72
2022/10/11 03:01:10;;;;;;;12.82;1.92;;;12.00;99.90;;;;;;5071887;28;20029;-72
2022/10/11 03:03:35;;;;;;;22.58;3.75;;;12.00;99.90;;;;;;5072073;28;20496;-72
2022/10/11 03:06:02;;;;;;;15.57;1.83;;;12.00;99.90;;;;;;5071892;28;20039;-72
2022/10/11 03:08:28;;;;;;;19.27;2.30;;;12.00;99.90;;;;;;5071865;28;20033;-73
2022/10/11 03:10:53;;;;;;;15.20;2.05;;;12.10;99.90;;;;;;5071133;28;20032;-72
2022/10/11 03:13:19;;;;;;;18.52;3.45;;;12.10;99.80;;;;;;5071912;28;20033;-72
2022/10/11 03:15:54;;;;;;;9.20;1.90;;;12.00;99.90;;;;;;5071670;28;20032;-72
2022/10/11 03:18:20;;;;;;;22.63;3.10;;;12.00;99.90;;;;;;5071668;28;20044;-72
2022/10/11 03:20:46;;;;;;;11.25;1.65;;;12.00;99.90;;;;;;5071612;28;20025;-72
2022/10/11 03:23:12;;;;;;;15.70;2.45;;;11.90;99.90;;;;;;5072145;28;20024;-73
2022/10/11 03:25:38;;;;;;;18.35;2.00;;;12.00;99.90;;;;;;5071646;28;20088;-72
2022/10/11 03:28:04;;;;;;;17.95;2.38;;;12.00;99.80;;;;;;5071469;28;20040;-73
2022/10/11 03:30:30;;;;;;;20.55;2.25;;;11.90;99.90;;;;;;5071585;28;20040;-72
2022/10/11 03:32:56;;;;;;;16.00;2.47;;;11.90;99.90;;;;;;5071621;28;20044;-72
2022/10/11 03:35:21;;;;;;;20.77;2.70;;;12.00;99.90;;;;;;5071437;28;20106;-72
2022/10/11 03:37:47;;;;;;;13.90;2.00;;;12.00;99.80;;;;;;5071743;28;20025;-72
2022/10/11 03:40:13;;;;;;;19.52;2.72;;;11.90;99.80;;;;;;5070402;28;20021;-72
2022/10/11 03:42:40;;;;;;;12.68;2.22;;;11.90;99.90;;;;;;5070335;28;20044;-73
2022/10/11 03:45:07;;;;;;;14.98;2.30;;;12.00;99.80;;;;;;5071197;28;20025;-73
2022/10/11 03:47:34;;;;;;;21.88;2.80;;;11.90;99.90;;;;;;5071146;28;20024;-72
2022/10/11 03:50:00;;;;;;;13.40;1.77;;;11.90;99.90;;;;;;5071552;28;20017;-73
2022/10/11 03:52:26;;;;;;;13.57;2.10;;;11.90;99.80;;;;;;5071076;28;20132;-73
2022/10/11 03:54:52;;;;;;;14.82;2.80;;;11.90;99.80;;;;;;5070914;28;20048;-72
2022/10/11 03:57:17;;;;;;;13.52;2.35;;;11.90;99.90;;;;;;5069851;28;20036;-72
2022/10/11 03:59:43;;;;;;;10.77;1.90;;;11.90;99.80;;;;;;5070865;28;20064;-72
2022/10/11 04:02:09;;;;;;;18.73;2.03;;;11.70;99.90;;;;;;5071445;28;20062;-72
2022/10/11 04:04:35;;;;;;;14.32;2.22;;;11.70;99.90;;;;;;5069781;28;20119;-73
2022/10/11 04:07:00;;;;;;;10.27;1.95;;;11.80;99.90;;;;;;5070863;28;20032;-73
2022/10/11 04:09:26;;;;;;;18.08;2.40;;;11.80;99.90;;;;;;5070717;28;20462;-72
2022/10/11 04:11:52;;;;;;;20.83;2.90;;;11.90;99.90;;;;;;5069113;28;20060;-72
2022/10/11 04:14:17;;;;;;;8.77;1.73;;;11.90;99.80;;;;;;5071453;28;20119;-73
2022/10/11 04:16:43;;;;;;;19.15;2.47;;;11.90;99.70;;;;;;5071043;28;20025;-73
2022/10/11 04:19:09;;;;;;;17.42;1.85;;;11.90;99.80;;;;;;5071033;28;20025;-73
2022/10/11 04:21:34;;;;;;;17.90;2.47;;;11.90;99.70;;;;;;5070684;28;20064;-73
2022/10/11 04:24:00;;;;;;;22.45;2.92;;;11.90;99.70;;;;;;5070825;28;20483;-74
2022/10/11 04:26:26;;;;;;;9.65;1.90;;;11.90;99.80;;;;;;5070596;28;20035;-73
2022/10/11 04:28:51;;;;;;;12.85;2.40;;;11.80;99.80;;;;;;5071206;28;20099;-73
2022/10/11 04:31:17;;;;;;;15.38;2.70;;;11.90;99.70;;;;;;5070763;28;20024;-73
2022/10/11 04:33:43;;;;;;;13.25;2.42;;;11.90;99.80;;;;;;5070584;28;20454;-72
2022/10/11 04:36:08;;;;;;;19.27;2.70;;;11.90;99.80;;;;;;5070620;28;20449;-72
2022/10/11 04:38:34;;;;;;;20.88;3.72;;;11.80;99.90;;;;;;5070426;28;20029;-73
2022/10/11 04:41:11;;;;;;;12.95;2.60;;;11.90;99.90;;;;;;5071137;28;20017;-73
2022/10/11 04:43:37;;;;;;;14.27;2.15;;;11.80;99.90;;;;;;5070920;28;20462;-72
2022/10/11 04:46:04;;;;;;;11.30;2.15;;;11.80;99.90;;;;;;5070804;28;20037;-73
2022/10/11 04:48:30;;;;;;;11.05;2.60;;;11.80;99.70;;;;;;5070558;28;20123;-73
2022/10/11 04:50:55;;;;;;;16.52;3.50;;;11.80;99.80;;;;;;5069146;28;20112;-73
2022/10/11 04:53:21;;;;;;;16.08;2.53;;;11.80;99.80;;;;;;5070756;28;20033;-73
2022/10/11 04:56:02;;;;;;;13.82;2.38;;;11.80;99.70;;;;;;5070392;28;20043;-73
2022/10/11 04:58:29;;;;;;;18.27;3.00;;;11.80;99.80;;;;;;5070480;28;20028;-72
2022/10/11 05:00:55;;;;;;;10.77;2.28;;;11.70;99.80;;;;;;5070069;28;20366;-73
2022/10/11 05:03:20;;;;;;;15.90;2.65;;;11.70;99.90;;;;;;5069267;28;20117;-73
2022/10/11 05:05:46;;;;;;;14.30;2.80;;;11.70;99.90;;;;;;5069052;28;20434;-72
2022/10/11 05:08:12;;;;;;;14.30;2.40;;;11.70;99.90;;;;;;5070554;28;20025;-73
2022/10/11 05:10:37;;;;;;;16.13;2.25;;;11.70;99.70;;;;;;5068851;28;20050;-72
2022/10/11 05:13:03;;;;;;;17.60;2.38;;;11.80;99.70;;;;;;5069950;28;20369;-72
2022/10/11 05:15:29;;;;;;;12.57;2.53;;;11.80;99.80;;;;;;5070320;28;20125;-73
2022/10/11 05:17:54;;;;;;;19.60;2.88;;;11.70;99.80;;;;;;5070107;28;20028;-72
2022/10/11 05:20:20;;;;;;;10.02;2.13;;;11.70;99.70;;;;;;5070500;28;20442;-72
2022/10/11 05:22:46;;;;;;;17.02;2.17;;;11.80;99.70;;;;;;5071782;28;20036;-74
2022/10/11 05:25:11;;;;;;;14.95;2.42;;;11.80;99.80;;;;;;5072922;28;20112;-73
2022/10/11 05:27:37;;;;;;;10.35;2.80;;;11.80;99.60;;;;;;5073745;28;20048;-73
2022/10/11 05:30:04;;;;;;;14.77;2.55;;;11.80;99.70;;;;;;5073811;28;20043;-71
2022/10/11 05:32:29;;;;;;;17.75;3.10;;;11.80;99.90;;;;;;5072607;28;20028;-72
2022/10/11 05:34:55;;;;;;;19.50;2.92;;;11.80;99.80;;;;;;5073965;28;20077;-73
2022/10/11 05:37:21;;;;;;;19.08;2.80;;;11.80;99.70;;;;;;5073515;28;20331;-71
2022/10/11 05:39:47;;;;;;;11.43;2.33;;;11.80;99.90;;;;;;5061160;28;20026;-72
2022/10/11 05:42:12;;;;;;;21.63;2.83;;;11.70;99.90;;;;;;5053509;28;20124;-71
2022/10/11 05:44:38;;;;;;;16.08;2.65;;;11.80;99.90;;;;;;5069061;28;20051;-71
2022/10/11 05:47:04;;;;;;;15.95;2.35;;;11.70;99.80;;;;;;5054087;28;20352;-73
2022/10/11 05:49:30;;;;;;;14.60;2.28;;;11.80;99.80;;;;;;5053467;28;20462;-74
2022/10/11 05:51:56;;;;;;;15.05;2.95;;;11.80;99.70;;;;;;5068692;28;20040;-72
2022/10/11 05:54:21;;;;;;;17.13;3.25;;;11.80;99.70;;;;;;5053401;28;20093;-72
2022/10/11 05:56:47;;;;;;;13.45;2.80;;;11.70;99.80;;;;;;5052873;28;20029;-73
2022/10/11 05:59:13;;;;;;;20.00;3.45;;;11.90;99.90;;;;;;5053307;28;20107;-74
2022/10/11 06:01:39;;;;;;;15.70;2.08;;;11.80;99.80;;;;;;5068792;28;20083;-75
2022/10/11 06:04:04;;;;;;;18.42;2.55;;;11.70;99.80;;;;;;5052853;28;20371;-72
2022/10/11 06:06:30;;;;;;;16.20;3.83;;;11.80;99.80;;;;;;5053025;28;20450;-73
2022/10/11 06:08:56;;;;;;;18.08;4.32;;;11.70;99.90;;;;;;5053167;28;20036;-73
2022/10/11 06:11:25;;;;;;;20.23;3.45;;;11.70;99.80;;;;;;5053089;28;20421;-74
2022/10/11 06:13:54;;;;;;;13.32;2.70;;;11.80;99.70;;;;;;5053312;28;20516;-73
2022/10/11 06:16:20;;;;;;;12.48;2.33;;;11.80;99.60;;;;;;5053039;28;20025;-73
2022/10/11 06:18:46;;;;;;;13.65;3.20;;;11.80;99.60;;;;;;5052863;28;20033;-73
2022/10/11 06:21:12;;;;;;;16.65;2.67;;;11.70;99.70;;;;;;5053324;28;20100;-74
2022/10/11 06:23:38;;;;;;;18.15;2.80;;;11.70;99.80;;;;;;5068413;28;20362;-74
2022/10/11 06:26:06;;;;;;;18.25;2.53;;;11.90;99.90;;;;;;5053165;28;20082;-75
2022/10/11 06:28:34;;;;;;;19.88;2.80;;;11.70;99.70;;;;;;5068498;28;20037;-77
2022/10/11 06:31:02;;;;;;;16.42;2.50;;;11.80;99.80;;;;;;5053190;28;20132;-75
2022/10/11 06:33:27;;;;;;;16.27;2.38;;;11.80;99.70;;;;;;5053059;28;20060;-74
2022/10/11 06:35:58;;;;;;;19.35;2.50;;;11.80;99.70;;;;;;5052180;28;20501;-74
2022/10/11 06:38:24;;;;;;;16.48;2.28;;;11.80;99.70;;;;;;5068668;28;20378;-74
2022/10/11 06:40:50;;;;;;;15.02;2.33;;;11.80;99.80;;;;;;5053016;28;20036;-75
2022/10/11 06:43:15;;;;;;;13.80;2.80;;;11.80;99.80;;;;;;5052224;28;20040;-75
2022/10/11 06:45:41;;;;;;;15.85;2.55;;;11.80;99.70;;;;;;5052775;28;20037;-77
2022/10/11 06:48:07;;;;;;;13.93;3.65;;;11.90;99.60;;;;;;5052666;28;20443;-75
2022/10/11 06:50:32;;;;;;;16.60;2.95;;;11.90;99.80;;;;;;5052329;28;20036;-73
2022/10/11 06:52:59;;;;;;;15.82;2.92;;;11.90;99.80;;;;;;5052607;28;20107;-74
2022/10/11 06:55:25;;;;;;;15.52;3.17;;;12.00;99.60;;;;;;5052063;28;20098;-75
2022/10/11 06:57:51;;;;;;;10.90;2.67;;;12.00;99.60;;;;;;5067987;28;20029;-75
2022/10/11 07:00:17;;;;;;;16.67;3.25;;;12.00;99.50;;;;;;5052441;28;20041;-73
2022/10/11 07:02:42;;;;;;;13.18;2.60;;;11.90;99.50;;;;;;5051981;28;20025;-74
2022/10/11 07:05:08;;;;;;;12.95;2.33;;;12.00;99.50;;;;;;5067959;28;20029;-74
2022/10/11 07:07:34;;;;;;;15.60;2.38;;;12.00;99.60;;;;;;5052104;28;20382;-74
2022/10/11 07:10:00;;;;;;;17.40;3.30;;;12.10;99.50;;;;;;5051650;28;20029;-76
2022/10/11 07:12:25;;;;;;;15.25;2.75;;;12.10;99.40;;;;;;5051508;28;20119;-73
2022/10/11 07:14:51;;;;;;;6.10;1.98;;;12.10;99.50;;;;;;5050543;28;20043;-74
2022/10/11 07:17:17;;;;;;;10.60;2.75;;;12.20;99.40;;;;;;5052097;28;20352;-73
2022/10/11 07:19:42;;;;;;;19.17;3.28;;;12.10;99.40;;;;;;5051605;28;20040;-73
2022/10/11 07:22:08;;;;;;;18.02;3.20;;;12.10;99.50;;;;;;5051948;28;20033;-75
2022/10/11 07:24:34;;;;;;;20.35;3.00;;;12.10;99.60;;;;;;5051556;28;20533;-75
2022/10/11 07:26:59;;;;;;;15.88;2.42;;;12.20;99.60;;;;;;5051557;28;20482;-75
2022/10/11 07:29:25;;;;;;;14.52;2.90;;;12.10;99.40;;;;;;5066945;28;20427;-73
2022/10/11 07:31:50;;;;;;;11.10;2.33;;;12.20;99.50;;;;;;5051803;28;20028;-73
2022/10/11 07:34:16;;;;;;;13.48;2.72;;;12.30;99.40;;;;;;5067012;28;20082;-76
2022/10/11 07:36:42;;;;;;;17.65;2.40;;;12.40;99.40;;;;;;5051035;28;20455;-75
2022/10/11 07:39:08;;;;;;;14.27;2.78;;;12.40;99.30;;;;;;5050460;28;20029;-76
2022/10/11 07:41:35;;;;;;;17.25;3.45;;;12.50;99.10;;;;;;5051371;28;20483;-76
2022/10/11 07:44:02;;;;;;;11.45;2.13;;;12.50;99.10;;;;;;5050754;28;20037;-75
2022/10/11 07:46:27;;;;;;;10.25;2.10;;;12.50;99.20;;;;;;5050093;28;20589;-76
2022/10/11 07:48:53;;;;;;;15.32;3.22;;;12.50;99.20;;;;;;5050999;28;20283;-76
2022/10/11 07:51:21;;;;;;;14.52;2.92;;;12.50;99.00;;;;;;5066645;28;20033;-76
2022/10/11 07:53:49;;;;;;;19.02;2.47;;;12.50;99.20;;;;;;5051077;28;20040;-75
2022/10/11 07:56:18;;;;;;;14.05;2.70;;;12.60;99.10;;;;;;5051541;28;20090;-74
2022/10/11 07:58:53;;;;;;;14.02;2.30;;;12.60;99.10;;;;;;5051012;28;20033;-75
2022/10/11 08:01:19;;;;;;;19.95;2.90;;;12.70;99.10;;;;;;5050961;28;20363;-75
2022/10/11 08:03:46;;;;;;;13.20;2.47;;;12.80;99.00;;;;;;5051013;28;20029;-74
2022/10/11 08:06:14;;;;;;;11.75;2.13;;;12.80;99.00;;;;;;5050821;28;20051;-75
2022/10/11 08:08:40;;;;;;;;;;;12.80;99.00;;;;;;5051389;28;20472;-74
2022/10/11 08:11:06;;;;;;;14.32;2.33;;;12.90;99.00;;;;;;5050037;28;19967;-75
2022/10/11 08:13:33;;;;;;;10.90;2.85;;;12.90;98.70;;;;;;5066387;28;20047;-73
2022/10/11 08:15:59;;;;;;;13.43;2.53;;;12.90;99.00;;;;;;5066713;28;20041;-75
2022/10/11 08:18:44;;;;;;;24.73;2.30;;;13.00;98.80;;;;;;5053655;28;20048;-74
2022/10/11 08:21:14;;;;;;;16.15;2.28;;;13.00;98.50;;;;;;5066147;28;20386;-73
2022/10/11 08:23:39;;;;;;;12.05;2.10;;;13.10;98.60;;;;;;5050463;28;20029;-74
2022/10/11 08:26:05;;;;;;;15.75;2.42;;;13.20;98.40;;;;;;5051391;28;20504;-71
2022/10/11 08:28:31;;;;;;;11.52;2.17;;;13.20;98.40;;;;;;5051012;28;20037;-74
2022/10/11 08:30:57;;;;;;;13.52;2.05;;;13.40;98.40;;;;;;5066290;28;20039;-73
2022/10/11 08:33:24;;;;;;;16.42;3.25;;;13.40;98.20;;;;;;5050382;28;20044;-75
2022/10/11 08:35:51;;;;;;;12.13;2.22;;;13.60;98.30;;;;;;5066137;28;20033;-73
2022/10/11 08:38:18;;;;;;;14.52;2.42;;;14.00;98.60;;;;;;5066375;28;20027;-73
2022/10/11 08:40:54;;;;;;;19.17;2.35;;;14.50;98.50;;;;;;5050614;28;20395;-73
2022/10/11 08:43:42;;;;;;;12.60;2.33;;;15.10;97.30;;;;;;5050400;28;20033;-74
2022/10/11 08:46:10;;;;;;;13.82;2.47;;;15.70;95.80;;;;;;5050470;28;20029;-74
2022/10/11 08:48:48;;;;;;;14.40;2.08;;;16.30;96.80;;;;;;5050580;28;20051;-74
2022/10/11 08:51:34;;;;;;;13.02;2.30;;;16.80;95.20;;;;;;5050389;28;20093;-75
2022/10/11 08:54:17;;;;;;;11.25;2.00;;;17.50;95.10;;;;;;5065630;28;20498;-73
2022/10/11 08:56:44;;;;;;;15.85;2.53;;;18.10;94.90;;;;;;5065949;28;20474;-79
2022/10/11 08:59:10;;;;;;;12.60;2.30;;;18.40;93.50;;;;;;5054650;28;20067;-73
2022/10/11 09:01:43;;;;;;;12.88;2.40;;;18.90;93.50;;;;;;5054901;28;20494;-74
2022/10/11 09:04:14;;;;;;;16.13;2.50;;;19.30;92.30;;;;;;5054517;28;20443;-72
2022/10/11 09:06:53;;;;;;;8.13;2.20;;;19.80;90.80;;;;;;5054225;28;20037;-72
2022/10/11 09:09:30;;;;;;;9.60;1.90;;;20.00;89.30;;;;;;5054283;28;20025;-73
2022/10/11 09:12:19;;;;;;;10.50;2.15;;;21.10;90.10;;;;;;5053933;28;20095;-75
2022/10/11 09:14:47;;;;;;;10.20;1.98;;;22.40;84.80;;;;;;5053844;28;20045;-76
2022/10/11 09:17:50;;;;;;;10.13;2.00;;;22.90;82.00;;;;;;5054348;28;20469;-76
2022/10/11 09:20:34;;;;;;;8.35;2.20;;;23.00;79.50;;;;;;5053855;28;20065;-73
2022/10/11 09:23:15;;;;;;;10.85;2.20;;;23.00;77.80;;;;;;5054031;28;20040;-77
2022/10/11 09:26:05;;;;;;;8.93;2.20;;;23.50;78.80;;;;;;5053875;28;20029;-77
2022/10/11 09:28:49;;;;;;;7.45;1.75;;;23.90;74.80;;;;;;5069376;28;20033;-76
2022/10/11 09:31:15;;;;;;;14.30;1.83;;;23.80;75.70;;;;;;5053897;28;20466;-75
2022/10/11 09:33:46;;;;;;;10.38;2.17;;;23.90;73.90;;;;;;5053700;28;20045;-74
2022/10/11 09:36:43;;;;;;;10.23;2.55;;;24.20;74.20;;;;;;5053426;28;20319;-75
2022/10/11 09:39:28;;;;;;;13.13;2.08;;;24.30;72.60;;;;;;5053386;28;20106;-74
2022/10/11 09:42:06;;;;;;;12.07;2.25;;;24.60;73.10;;;;;;5053450;28;20053;-74
2022/10/11 09:44:48;;;;;;;13.70;1.88;;;24.70;71.20;;;;;;5053643;28;20029;-74
2022/10/11 09:47:23;;;;;;;15.82;2.58;;;25.10;66.70;;;;;;5054260;28;20354;-73
2022/10/11 09:50:05;;;;;;;13.48;2.60;;;25.80;67.40;;;;;;5053951;28;20044;-73
2022/10/11 09:52:32;;;;;;;8.75;1.88;;;27.00;66.60;;;;;;5053343;28;20497;-76
2022/10/11 09:55:00;;;;;;;9.60;2.10;;;26.70;65.00;;;;;;5053277;28;20037;-75
2022/10/11 09:57:31;;;;;;;16.50;2.67;;;26.60;63.00;;;;;;5053204;28;20037;-75
2022/10/11 10:00:21;;;;;;;7.80;2.63;;;27.40;60.60;;;;;;5053131;28;20442;-73
2022/10/11 10:02:50;;;;;;;9.18;2.25;;;27.90;59.70;;;;;;5068311;28;20466;-73
2022/10/11 10:05:17;;;;;;;18.42;2.78;;;26.10;59.40;;;;;;5053278;28;20489;-74
2022/10/11 10:08:08;;;;;;;9.90;2.60;;;27.40;60.10;;;;;;5053144;28;20091;-73
2022/10/11 10:10:42;;;;;;;9.43;2.55;;;27.40;58.10;;;;;;5051819;28;20025;-74
2022/10/11 10:13:36;;;;;;;12.77;2.08;;;27.60;57.20;;;;;;5052850;28;20037;-73
2022/10/11 10:16:02;;;;;;;15.75;2.53;;;27.50;56.10;;;;;;5052884;28;20028;-73
2022/10/11 10:18:33;;;;;;;20.58;9.85;;;27.20;57.40;;;;;;5052771;28;20037;-73
2022/10/11 10:20:59;;;;;;;14.25;3.28;;;27.20;57.30;;;;;;5068281;28;20124;-74
2022/10/11 10:23:33;;;;;;;9.18;1.92;;;26.30;58.20;;;;;;5052614;28;20083;-73
2022/10/11 10:26:16;;;;;;;18.65;2.92;;;26.30;58.40;;;;;;5053384;28;20097;-74
2022/10/11 10:29:15;;;;;;;13.00;2.30;;;26.10;57.80;;;;;;5052507;28;20033;-73
2022/10/11 10:31:52;;;;;;;10.60;2.47;;;25.70;59.20;;;;;;5019823;28;20040;-74
2022/10/11 10:34:40;;;;;;;14.18;3.30;;;25.50;59.00;;;;;;5052426;28;20120;-73
2022/10/11 10:37:35;;;;;;;6.95;2.38;;;24.90;58.80;;;;;;5067928;28;20037;-74
2022/10/11 10:40:27;;;;;;;12.38;2.17;;;24.80;59.00;;;;;;5039493;28;20112;-74
2022/10/11 10:42:53;;;;;;;11.15;2.20;;;25.60;58.00;;;;;;5025411;28;20029;-73
2022/10/11 10:45:27;;;;;;;6.63;1.90;;;25.40;57.50;;;;;;5052392;28;20033;-73
2022/10/11 10:48:15;;;;;;;9.82;2.00;;;25.60;60.00;;;;;;5052141;28;20478;-73
2022/10/11 10:50:55;;;;;;;12.75;2.58;;;24.50;56.90;;;;;;5040541;28;20483;-72
2022/10/11 10:53:28;;;;;;;9.57;2.42;;;24.30;60.70;;;;;;5052406;28;20086;-71
2022/10/11 10:56:08;;;;;;;11.85;3.20;;;23.90;60.00;;;;;;5067803;28;20063;-74
2022/10/11 10:58:43;;;;;;;13.18;2.22;;;24.50;59.70;;;;;;5052122;28;20036;-73
2022/10/11 11:01:14;;;;;;;13.77;2.55;;;24.80;59.10;;;;;;5067438;28;20028;-74
2022/10/11 11:03:49;;;;;;;11.07;2.20;;;25.00;60.80;;;;;;5051812;28;20409;-75
2022/10/11 11:06:35;;;;;;;8.93;2.10;;;25.40;59.50;;;;;;5052058;28;20028;-74
2022/10/11 11:09:03;;;;;;;14.75;3.03;;;24.10;59.30;;;;;;5052002;28;20121;-76
2022/10/11 11:11:41;;;;;;;13.63;2.08;;;23.90;59.50;;;;;;5051607;28;20045;-76
2022/10/11 11:14:16;;;;;;;;;;;24.30;59.50;;;;;;5052549;28;20120;-74
2022/10/11 11:16:57;;;;;;;12.32;2.28;;;24.30;58.00;;;;;;5051786;28;19951;-75
2022/10/11 11:19:35;;;;;;;7.18;1.98;;;24.40;59.30;;;;;;5051565;28;20025;-75
2022/10/11 11:22:29;;;;;;;8.15;1.80;;;24.50;58.30;;;;;;5051380;28;20461;-76
2022/10/11 11:25:15;;;;;;;8.90;2.47;;;23.90;58.30;;;;;;5051389;28;20041;-75
2022/10/11 11:27:49;;;;;;;11.55;2.30;;;23.90;59.00;;;;;;5051024;28;20036;-74
2022/10/11 11:30:41;;;;;;;17.98;2.35;;;23.80;58.30;;;;;;5051436;28;20354;-75
2022/10/11 11:33:26;;;;;;;10.88;1.90;;;23.00;58.90;;;;;;5051307;28;20025;-74
2022/10/11 11:35:55;;;;;;;9.07;1.58;;;22.40;60.10;;;;;;5066769;28;20331;-74
2022/10/11 11:38:27;;;;;;;10.35;2.20;;;22.10;59.30;;;;;;5051479;28;20043;-75
2022/10/11 11:41:04;;;;;;;12.18;2.63;;;21.20;60.30;;;;;;5050315;28;20075;-75
2022/10/11 11:43:59;;;;;;;7.20;2.03;;;20.80;61.90;;;;;;5051422;28;20256;-73
2022/10/11 11:46:34;;;;;;;10.73;2.03;;;20.80;62.30;;;;;;5048163;28;20133;-73
2022/10/11 11:49:15;;;;;;;13.95;2.53;;;20.40;63.80;;;;;;5051186;28;20037;-74
2022/10/11 11:51:44;;;;;;;10.20;2.75;;;20.60;63.50;;;;;;5050893;28;20029;-75
2022/10/11 11:54:23;;;;;;;13.32;2.90;;;20.40;64.00;;;;;;5066207;28;20378;-73
2022/10/11 11:57:13;;;;;;;15.40;2.35;;;20.00;64.80;;;;;;5050790;28;20029;-74
2022/10/11 11:59:43;;;;;;;8.43;1.67;;;20.00;65.30;;;;;;5066350;28;20114;-74
2022/10/11 12:02:28;;;;;;;10.75;2.25;;;19.90;65.10;;;;;;5066757;28;20025;-74
2022/10/11 12:04:53;;;;;;;15.00;3.78;;;19.90;64.50;;;;;;5050849;28;20040;-74
2022/10/11 12:07:22;;;;;;;13.55;2.28;;;19.90;65.10;;;;;;5050600;28;20191;-75
2022/10/11 12:09:53;;;;;;;13.00;2.55;;;20.20;65.10;;;;;;5050557;28;20051;-76
2022/10/11 12:12:31;;;;;;;8.68;1.85;;;20.20;64.80;;;;;;5050403;28;20051;-76
2022/10/11 12:15:18;;;;;;;12.85;2.17;;;20.10;64.40;;;;;;5066051;28;20044;-75
2022/10/11 12:17:56;;;;;;;15.57;2.55;;;20.00;64.80;;;;;;5050491;28;20513;-76
2022/10/11 12:20:36;;;;;;;7.93;1.48;;;20.00;65.70;;;;;;5050482;28;20531;-75
2022/10/11 12:23:28;;;;;;;10.13;2.35;;;19.90;66.00;;;;;;5051247;28;20056;-74
2022/10/11 12:26:23;;;;;;;9.77;2.55;;;19.70;66.50;;;;;;5043357;28;20422;-77
2022/10/11 12:29:39;;;;;;;17.08;5.50;;;19.60;66.60;;;;;;5050880;28;20107;-76
2022/10/11 12:32:04;;;;;;;8.57;1.63;;;19.70;67.40;;;;;;5049893;28;20229;-75
2022/10/11 12:34:36;;;;;;;12.98;2.22;;;19.50;66.80;;;;;;5050251;28;20033;-74
2022/10/11 12:37:16;;;;;;;10.35;1.60;;;19.40;67.00;;;;;;5050381;28;20025;-76
2022/10/11 12:39:55;;;;;;;11.80;1.95;;;19.20;67.60;;;;;;5050377;28;20041;-77
2022/10/11 12:42:24;;;;;;;11.15;1.83;;;19.30;68.40;;;;;;5050251;28;20072;-79
2022/10/11 12:45:29;;;;;;;10.68;2.13;;;19.30;68.50;;;;;;5065699;28;20504;-78
2022/10/11 12:48:29;;;;;;;10.85;2.00;;;19.20;68.30;;;;;;5050091;28;20033;-77
2022/10/11 12:51:14;;;;;;;8.70;1.90;;;18.80;68.40;;;;;;5026761;28;20367;-75
2022/10/11 12:53:52;;;;;;;13.27;2.38;;;18.90;68.50;;;;;;5050275;28;20291;-76
2022/10/11 12:56:36;;;;;;;76.20;34.13;;;19.00;66.60;;;;;;5065866;28;20340;-75
2022/10/11 12:59:05;;;;;;;11.02;3.08;;;19.00;66.60;;;;;;5050213;28;20036;-76
2022/10/11 13:01:56;;;;;;;9.02;1.63;;;18.90;67.10;;;;;;5049971;28;20029;-75
2022/10/11 13:04:28;;;;;;;10.82;2.17;;;18.60;67.60;;;;;;5049776;28;20033;-77
2022/10/11 13:07:04;;;;;;;11.48;1.95;;;18.70;67.50;;;;;;5049986;28;20156;-79
2022/10/11 13:09:39;;;;;;;11.35;1.83;;;18.50;67.70;;;;;;5065829;28;20102;-75